Odyssea Darwin — WDE2876 — position and weather

sailwx.info

Track history (hours):
 
Tides and Currents Weather Stations Pressure Air Temp Water Temp Dewpoint Dewpoint Depression Visibility Wind Speed Wind Dir Waves Ship Positions

Odyssea Darwin

Owner: ODYSSEA MARINE, INC., LAROSE, LA. More information available from US FCC via Universal Licensing System and Coast Guard Vessel Documentation Center.

Last reported at 2018-Feb-11 15:05 UTC. Time now 2018-Feb-19 18:05 UTC.
Position N 29°48' W 093°21'.
Warning: this ship's position is 8 days out of date.

Length 48 m; draft 3 m.

Type: Cargo ship. MMSI: 367330830.

Date/timePositionNaut miles runAvg speedWind from/ knotsBaromVisibWave heightAir tempDewpointWater temp
2018-Feb-11 15:05N 29°48' W 093°21'1 8.9
2018-Feb-11 15:00N 29°48' W 093°21'0 1.0
2018-Feb-11 14:30N 29°49' W 093°21'0 0.0
2018-Feb-11 14:00N 29°49' W 093°21'0 0.0
2018-Feb-11 13:30N 29°49' W 093°21'0 0.0
2018-Feb-11 13:00N 29°49' W 093°21'0 0.0
2018-Feb-11 12:30N 29°49' W 093°21'0 0.0
2018-Feb-11 12:00N 29°49' W 093°21'0 0.0
2018-Feb-11 11:30N 29°49' W 093°21'0 0.0
2018-Feb-11 11:00N 29°49' W 093°21'0 0.0
2018-Feb-11 10:29N 29°49' W 093°21'0 0.0
2018-Feb-11 09:55N 29°49' W 093°21'0 0.0
2018-Feb-11 09:29N 29°49' W 093°21'0 0.0
2018-Feb-11 09:00N 29°49' W 093°21'0 0.0
2018-Feb-11 08:29N 29°49' W 093°21'0 0.0
2018-Feb-11 08:00N 29°49' W 093°21'0 0.0
2018-Feb-11 07:30N 29°49' W 093°21'0 0.0
2018-Feb-11 05:24N 29°49' W 093°21'0 0.0
2018-Feb-11 05:00N 29°49' W 093°21'0 0.0
2018-Feb-11 04:27N 29°49' W 093°21'0 0.0
2018-Feb-11 04:00N 29°49' W 093°21'0 0.0
2018-Feb-11 03:19N 29°49' W 093°21'0 0.0
2018-Feb-11 02:58N 29°49' W 093°21'0 0.0
2018-Feb-11 02:25N 29°49' W 093°21'0 0.0
2018-Feb-11 01:55N 29°49' W 093°21'0 0.0
2018-Feb-11 01:30N 29°49' W 093°21'0 0.0
2018-Feb-11 01:00N 29°49' W 093°21'0 0.0
2018-Feb-11 00:29N 29°49' W 093°21'0 0.0
2018-Feb-10 23:59N 29°49' W 093°21'0 0.1
2018-Feb-10 21:27N 29°49' W 093°21'1 0.6
2018-Feb-10 20:17N 29°49' W 093°20'0 0.1
2018-Feb-10 19:44N 29°49' W 093°20'32 8.7
2018-Feb-10 16:02N 29°18' W 093°30'010.3
2018-Feb-10 16:00N 29°18' W 093°30'  
2018-Feb-06 14:00N 29°36' W 093°22'4 8.7
2018-Feb-06 13:30N 29°40' W 093°21'4 7.1
2018-Feb-06 13:00N 29°44' W 093°20'5 0.4
2018-Feb-06 00:13N 29°49' W 093°21'  
2018-Feb-03 06:19N 29°47' W 093°21'2 6.5
2018-Feb-03 06:00N 29°49' W 093°21'0 0.1
2018-Feb-03 05:30N 29°49' W 093°21'0 0.0
2018-Feb-03 05:00N 29°49' W 093°21'0 0.0
2018-Feb-03 04:00N 29°49' W 093°21'0 0.0
2018-Feb-03 03:30N 29°49' W 093°21'0 0.0
2018-Feb-03 02:00N 29°49' W 093°21'0 0.0
2018-Feb-03 01:30N 29°49' W 093°21'0 0.0
2018-Feb-03 01:00N 29°49' W 093°21'0 0.0
2018-Feb-03 00:30N 29°49' W 093°21'0 0.0
2018-Feb-03 00:00N 29°49' W 093°21'0 0.3
2018-Feb-02 23:29N 29°49' W 093°21'0 0.4
2018-Feb-02 22:10N 29°49' W 093°20'1 3.2
2018-Feb-02 22:00N 29°49' W 093°21'0 0.0
2018-Feb-02 21:30N 29°49' W 093°21'0 0.0
2018-Feb-02 20:59N 29°49' W 093°21'0 0.0
2018-Feb-02 20:31N 29°49' W 093°21'0 0.0
2018-Feb-02 20:00N 29°49' W 093°21'0 0.0
2018-Feb-02 19:00N 29°49' W 093°21'0 0.0
2018-Feb-02 18:30N 29°49' W 093°21'0 0.0
2018-Feb-02 18:00N 29°49' W 093°21'0 0.0
2018-Feb-02 17:30N 29°49' W 093°21'0 0.0
2018-Feb-02 17:00N 29°49' W 093°21'0 0.0
2018-Feb-02 16:30N 29°49' W 093°21'0 0.0
2018-Feb-02 15:30N 29°49' W 093°21'0 0.0
2018-Feb-02 14:28N 29°49' W 093°21'0 0.0
2018-Feb-02 14:00N 29°49' W 093°21'0 0.0
2018-Feb-02 13:30N 29°49' W 093°21'0 0.0
2018-Feb-02 13:00N 29°49' W 093°21'0 0.0
2018-Feb-02 12:29N 29°49' W 093°21'0 0.0
2018-Feb-02 12:00N 29°49' W 093°21'0 0.0
2018-Feb-02 11:30N 29°49' W 093°21'0 0.0
2018-Feb-02 11:00N 29°49' W 093°21'0 0.0
2018-Feb-02 10:30N 29°49' W 093°21'0 0.0
2018-Feb-02 10:00N 29°49' W 093°21'0 0.0
2018-Feb-02 09:30N 29°49' W 093°21'0 0.0
2018-Feb-02 09:00N 29°49' W 093°21'0 0.0
2018-Feb-02 08:30N 29°49' W 093°21'0 0.0
2018-Feb-02 08:00N 29°49' W 093°21'0 0.0
2018-Feb-02 07:30N 29°49' W 093°21'0 0.0
2018-Feb-02 07:00N 29°49' W 093°21'0 0.0
2018-Feb-02 06:30N 29°49' W 093°21'0 0.0
2018-Feb-02 06:00N 29°49' W 093°21'0 0.0
2018-Feb-02 05:30N 29°49' W 093°21'0 0.0
2018-Feb-02 04:59N 29°49' W 093°21'0 0.1
2018-Feb-02 04:29N 29°49' W 093°21'1 0.2
2018-Feb-02 01:45N 29°49' W 093°20'0 0.0
2018-Feb-02 01:30N 29°49' W 093°20'0 0.0
2018-Feb-01 22:46N 29°49' W 093°20'  
Track history (hours):
 
Tides and Currents Weather Stations Pressure Air Temp Water Temp Dewpoint Dewpoint Depression Visibility Wind Speed Wind Dir Waves Ship Positions

Odyssea Darwin

Owner: ODYSSEA MARINE, INC., LAROSE, LA. More information available from US FCC via Universal Licensing System and Coast Guard Vessel Documentation Center.

Last reported at 2018-Feb-11 15:05 UTC. Time now 2018-Feb-19 18:05 UTC.
Position N 29°48' W 093°21'.
Warning: this ship's position is 8 days out of date.

Length 48 m; draft 3 m.

Type: Cargo ship. MMSI: 367330830.

Date/timePositionNaut miles runAvg speedWind from/ knotsBaromVisibWave heightAir tempDewpointWater temp
2018-Feb-11 15:05N 29°48' W 093°21'1 8.9
2018-Feb-11 15:00N 29°48' W 093°21'0 1.0
2018-Feb-11 14:30N 29°49' W 093°21'0 0.0
2018-Feb-11 14:00N 29°49' W 093°21'0 0.0
2018-Feb-11 13:30N 29°49' W 093°21'0 0.0
2018-Feb-11 13:00N 29°49' W 093°21'0 0.0
2018-Feb-11 12:30N 29°49' W 093°21'0 0.0
2018-Feb-11 12:00N 29°49' W 093°21'0 0.0
2018-Feb-11 11:30N 29°49' W 093°21'0 0.0
2018-Feb-11 11:00N 29°49' W 093°21'0 0.0
2018-Feb-11 10:29N 29°49' W 093°21'0 0.0
2018-Feb-11 09:55N 29°49' W 093°21'0 0.0
2018-Feb-11 09:29N 29°49' W 093°21'0 0.0
2018-Feb-11 09:00N 29°49' W 093°21'0 0.0
2018-Feb-11 08:29N 29°49' W 093°21'0 0.0
2018-Feb-11 08:00N 29°49' W 093°21'0 0.0
2018-Feb-11 07:30N 29°49' W 093°21'0 0.0
2018-Feb-11 05:24N 29°49' W 093°21'0 0.0
2018-Feb-11 05:00N 29°49' W 093°21'0 0.0
2018-Feb-11 04:27N 29°49' W 093°21'0 0.0
2018-Feb-11 04:00N 29°49' W 093°21'0 0.0
2018-Feb-11 03:19N 29°49' W 093°21'0 0.0
2018-Feb-11 02:58N 29°49' W 093°21'0 0.0
2018-Feb-11 02:25N 29°49' W 093°21'0 0.0
2018-Feb-11 01:55N 29°49' W 093°21'0 0.0
2018-Feb-11 01:30N 29°49' W 093°21'0 0.0
2018-Feb-11 01:00N 29°49' W 093°21'0 0.0
2018-Feb-11 00:29N 29°49' W 093°21'0 0.0
2018-Feb-10 23:59N 29°49' W 093°21'0 0.1
2018-Feb-10 21:27N 29°49' W 093°21'1 0.6
2018-Feb-10 20:17N 29°49' W 093°20'0 0.1
2018-Feb-10 19:44N 29°49' W 093°20'32 8.7
2018-Feb-10 16:02N 29°18' W 093°30'010.3
2018-Feb-10 16:00N 29°18' W 093°30'  
2018-Feb-06 14:00N 29°36' W 093°22'4 8.7
2018-Feb-06 13:30N 29°40' W 093°21'4 7.1
2018-Feb-06 13:00N 29°44' W 093°20'5 0.4
2018-Feb-06 00:13N 29°49' W 093°21'  
2018-Feb-03 06:19N 29°47' W 093°21'2 6.5
2018-Feb-03 06:00N 29°49' W 093°21'0 0.1
2018-Feb-03 05:30N 29°49' W 093°21'0 0.0
2018-Feb-03 05:00N 29°49' W 093°21'0 0.0
2018-Feb-03 04:00N 29°49' W 093°21'0 0.0
2018-Feb-03 03:30N 29°49' W 093°21'0 0.0
2018-Feb-03 02:00N 29°49' W 093°21'0 0.0
2018-Feb-03 01:30N 29°49' W 093°21'0 0.0
2018-Feb-03 01:00N 29°49' W 093°21'0 0.0
2018-Feb-03 00:30N 29°49' W 093°21'0 0.0
2018-Feb-03 00:00N 29°49' W 093°21'0 0.3
2018-Feb-02 23:29N 29°49' W 093°21'0 0.4
2018-Feb-02 22:10N 29°49' W 093°20'1 3.2
2018-Feb-02 22:00N 29°49' W 093°21'0 0.0
2018-Feb-02 21:30N 29°49' W 093°21'0 0.0
2018-Feb-02 20:59N 29°49' W 093°21'0 0.0
2018-Feb-02 20:31N 29°49' W 093°21'0 0.0
2018-Feb-02 20:00N 29°49' W 093°21'0 0.0
2018-Feb-02 19:00N 29°49' W 093°21'0 0.0
2018-Feb-02 18:30N 29°49' W 093°21'0 0.0
2018-Feb-02 18:00N 29°49' W 093°21'0 0.0
2018-Feb-02 17:30N 29°49' W 093°21'0 0.0
2018-Feb-02 17:00N 29°49' W 093°21'0 0.0
2018-Feb-02 16:30N 29°49' W 093°21'0 0.0
2018-Feb-02 15:30N 29°49' W 093°21'0 0.0
2018-Feb-02 14:28N 29°49' W 093°21'0 0.0
2018-Feb-02 14:00N 29°49' W 093°21'0 0.0
2018-Feb-02 13:30N 29°49' W 093°21'0 0.0
2018-Feb-02 13:00N 29°49' W 093°21'0 0.0
2018-Feb-02 12:29N 29°49' W 093°21'0 0.0
2018-Feb-02 12:00N 29°49' W 093°21'0 0.0
2018-Feb-02 11:30N 29°49' W 093°21'0 0.0
2018-Feb-02 11:00N 29°49' W 093°21'0 0.0
2018-Feb-02 10:30N 29°49' W 093°21'0 0.0
2018-Feb-02 10:00N 29°49' W 093°21'0 0.0
2018-Feb-02 09:30N 29°49' W 093°21'0 0.0
2018-Feb-02 09:00N 29°49' W 093°21'0 0.0
2018-Feb-02 08:30N 29°49' W 093°21'0 0.0
2018-Feb-02 08:00N 29°49' W 093°21'0 0.0
2018-Feb-02 07:30N 29°49' W 093°21'0 0.0
2018-Feb-02 07:00N 29°49' W 093°21'0 0.0
2018-Feb-02 06:30N 29°49' W 093°21'0 0.0
2018-Feb-02 06:00N 29°49' W 093°21'0 0.0
2018-Feb-02 05:30N 29°49' W 093°21'0 0.0
2018-Feb-02 04:59N 29°49' W 093°21'0 0.1
2018-Feb-02 04:29N 29°49' W 093°21'1 0.2
2018-Feb-02 01:45N 29°49' W 093°20'0 0.0
2018-Feb-02 01:30N 29°49' W 093°20'0 0.0
2018-Feb-01 22:46N 29°49' W 093°20'  

Dump ship's entire track history